sensor_id;sensor_type;location;lat;lon;timestamp;P1;durP1;ratioP1;P2;durP2;ratioP2
2452;SDS011;63678;47.994;7.854;2023-04-19T00:01:35;8.57;;;5.00;;
2452;SDS011;63678;47.994;7.854;2023-04-19T00:04:08;9.27;;;5.55;;
2452;SDS011;63678;47.994;7.854;2023-04-19T00:06:40;9.85;;;5.40;;
2452;SDS011;63678;47.994;7.854;2023-04-19T00:09:13;8.63;;;5.03;;
2452;SDS011;63678;47.994;7.854;2023-04-19T00:11:45;8.77;;;5.40;;
2452;SDS011;63678;47.994;7.854;2023-04-19T00:14:18;8.13;;;4.93;;
2452;SDS011;63678;47.994;7.854;2023-04-19T00:16:51;7.75;;;5.20;;
2452;SDS011;63678;47.994;7.854;2023-04-19T00:19:23;10.52;;;5.68;;
2452;SDS011;63678;47.994;7.854;2023-04-19T00:21:55;8.57;;;5.43;;
2452;SDS011;63678;47.994;7.854;2023-04-19T00:24:27;9.77;;;5.55;;
2452;SDS011;63678;47.994;7.854;2023-04-19T00:27:00;9.80;;;5.38;;
2452;SDS011;63678;47.994;7.854;2023-04-19T00:29:32;10.98;;;5.40;;
2452;SDS011;63678;47.994;7.854;2023-04-19T00:32:05;10.77;;;5.95;;
2452;SDS011;63678;47.994;7.854;2023-04-19T00:34:37;8.45;;;5.68;;
2452;SDS011;63678;47.994;7.854;2023-04-19T00:37:09;9.32;;;6.10;;
2452;SDS011;63678;47.994;7.854;2023-04-19T00:39:42;8.68;;;5.65;;
2452;SDS011;63678;47.994;7.854;2023-04-19T00:42:15;10.15;;;5.60;;
2452;SDS011;63678;47.994;7.854;2023-04-19T00:44:50;10.48;;;5.72;;
2452;SDS011;63678;47.994;7.854;2023-04-19T00:47:22;10.65;;;5.80;;
2452;SDS011;63678;47.994;7.854;2023-04-19T00:49:55;9.50;;;5.57;;
2452;SDS011;63678;47.994;7.854;2023-04-19T00:52:27;10.05;;;6.53;;
2452;SDS011;63678;47.994;7.854;2023-04-19T00:55:00;11.02;;;6.07;;
2452;SDS011;63678;47.994;7.854;2023-04-19T00:57:33;9.20;;;5.85;;
2452;SDS011;63678;47.994;7.854;2023-04-19T01:00:07;10.33;;;6.43;;
2452;SDS011;63678;47.994;7.854;2023-04-19T01:02:40;9.02;;;6.18;;
2452;SDS011;63678;47.994;7.854;2023-04-19T01:05:15;10.93;;;6.32;;
2452;SDS011;63678;47.994;7.854;2023-04-19T01:07:48;11.15;;;6.22;;
2452;SDS011;63678;47.994;7.854;2023-04-19T01:10:22;10.73;;;6.30;;
2452;SDS011;63678;47.994;7.854;2023-04-19T01:12:54;9.90;;;6.30;;
2452;SDS011;63678;47.994;7.854;2023-04-19T01:15:26;10.10;;;6.32;;
2452;SDS011;63678;47.994;7.854;2023-04-19T01:17:58;9.18;;;6.05;;
2452;SDS011;63678;47.994;7.854;2023-04-19T01:20:31;9.95;;;6.07;;
2452;SDS011;63678;47.994;7.854;2023-04-19T01:23:03;11.07;;;6.22;;
2452;SDS011;63678;47.994;7.854;2023-04-19T01:25:35;9.43;;;5.93;;
2452;SDS011;63678;47.994;7.854;2023-04-19T01:28:08;9.85;;;6.45;;
2452;SDS011;63678;47.994;7.854;2023-04-19T01:30:40;10.30;;;6.30;;
2452;SDS011;63678;47.994;7.854;2023-04-19T01:33:13;10.57;;;6.20;;
2452;SDS011;63678;47.994;7.854;2023-04-19T01:35:46;10.45;;;6.55;;
2452;SDS011;63678;47.994;7.854;2023-04-19T01:38:18;9.93;;;6.40;;
2452;SDS011;63678;47.994;7.854;2023-04-19T01:40:51;13.95;;;6.50;;
2452;SDS011;63678;47.994;7.854;2023-04-19T01:43:23;10.55;;;6.50;;
2452;SDS011;63678;47.994;7.854;2023-04-19T01:45:56;10.80;;;6.55;;
2452;SDS011;63678;47.994;7.854;2023-04-19T01:48:28;10.27;;;6.22;;
2452;SDS011;63678;47.994;7.854;2023-04-19T01:51:01;12.33;;;6.30;;
2452;SDS011;63678;47.994;7.854;2023-04-19T01:53:33;11.25;;;6.90;;
2452;SDS011;63678;47.994;7.854;2023-04-19T01:56:05;11.57;;;7.32;;
2452;SDS011;63678;47.994;7.854;2023-04-19T01:58:39;13.02;;;7.00;;
2452;SDS011;63678;47.994;7.854;2023-04-19T02:01:11;11.52;;;7.18;;
2452;SDS011;63678;47.994;7.854;2023-04-19T02:03:43;11.33;;;7.00;;
2452;SDS011;63678;47.994;7.854;2023-04-19T02:06:17;12.80;;;6.88;;
2452;SDS011;63678;47.994;7.854;2023-04-19T02:08:49;11.82;;;6.78;;
2452;SDS011;63678;47.994;7.854;2023-04-19T02:11:21;11.27;;;6.85;;
2452;SDS011;63678;47.994;7.854;2023-04-19T02:13:54;11.30;;;7.05;;
2452;SDS011;63678;47.994;7.854;2023-04-19T02:16:27;12.00;;;7.37;;
2452;SDS011;63678;47.994;7.854;2023-04-19T02:18:59;11.30;;;6.65;;
2452;SDS011;63678;47.994;7.854;2023-04-19T02:21:31;11.30;;;6.50;;
2452;SDS011;63678;47.994;7.854;2023-04-19T02:24:04;11.25;;;6.65;;
2452;SDS011;63678;47.994;7.854;2023-04-19T02:26:38;11.10;;;7.30;;
2452;SDS011;63678;47.994;7.854;2023-04-19T02:29:10;10.30;;;6.50;;
2452;SDS011;63678;47.994;7.854;2023-04-19T02:31:43;9.95;;;6.38;;
2452;SDS011;63678;47.994;7.854;2023-04-19T02:34:17;11.07;;;7.05;;
2452;SDS011;63678;47.994;7.854;2023-04-19T02:36:49;10.45;;;6.28;;
2452;SDS011;63678;47.994;7.854;2023-04-19T02:39:21;9.65;;;6.50;;
2452;SDS011;63678;47.994;7.854;2023-04-19T02:41:54;11.87;;;6.33;;
2452;SDS011;63678;47.994;7.854;2023-04-19T02:44:26;9.32;;;5.93;;
2452;SDS011;63678;47.994;7.854;2023-04-19T02:46:59;11.48;;;6.30;;
2452;SDS011;63678;47.994;7.854;2023-04-19T02:49:31;10.93;;;6.20;;
2452;SDS011;63678;47.994;7.854;2023-04-19T02:52:07;10.60;;;6.05;;
2452;SDS011;63678;47.994;7.854;2023-04-19T02:54:42;10.80;;;6.03;;
2452;SDS011;63678;47.994;7.854;2023-04-19T02:57:14;12.35;;;6.25;;
2452;SDS011;63678;47.994;7.854;2023-04-19T02:59:48;11.07;;;6.63;;
2452;SDS011;63678;47.994;7.854;2023-04-19T03:02:20;11.88;;;6.63;;
2452;SDS011;63678;47.994;7.854;2023-04-19T03:04:52;11.95;;;6.90;;
2452;SDS011;63678;47.994;7.854;2023-04-19T03:07:26;10.87;;;6.83;;
2452;SDS011;63678;47.994;7.854;2023-04-19T03:09:58;10.57;;;6.82;;
2452;SDS011;63678;47.994;7.854;2023-04-19T03:12:30;12.52;;;7.10;;
2452;SDS011;63678;47.994;7.854;2023-04-19T03:15:03;10.98;;;6.68;;
2452;SDS011;63678;47.994;7.854;2023-04-19T03:17:37;11.35;;;7.10;;
2452;SDS011;63678;47.994;7.854;2023-04-19T03:20:10;9.90;;;6.37;;
2452;SDS011;63678;47.994;7.854;2023-04-19T03:22:43;11.15;;;6.82;;
2452;SDS011;63678;47.994;7.854;2023-04-19T03:25:16;12.63;;;6.80;;
2452;SDS011;63678;47.994;7.854;2023-04-19T03:27:55;13.55;;;6.68;;
2452;SDS011;63678;47.994;7.854;2023-04-19T03:30:47;10.65;;;6.78;;
2452;SDS011;63678;47.994;7.854;2023-04-19T03:33:19;11.20;;;6.70;;
2452;SDS011;63678;47.994;7.854;2023-04-19T03:35:52;12.98;;;6.93;;
2452;SDS011;63678;47.994;7.854;2023-04-19T03:38:25;11.35;;;6.90;;
2452;SDS011;63678;47.994;7.854;2023-04-19T03:40:58;10.73;;;6.63;;
2452;SDS011;63678;47.994;7.854;2023-04-19T03:43:34;11.82;;;7.43;;
2452;SDS011;63678;47.994;7.854;2023-04-19T03:46:07;11.33;;;6.93;;
2452;SDS011;63678;47.994;7.854;2023-04-19T03:48:40;13.00;;;7.05;;
2452;SDS011;63678;47.994;7.854;2023-04-19T03:51:13;15.18;;;8.98;;
2452;SDS011;63678;47.994;7.854;2023-04-19T03:53:47;13.05;;;8.23;;
2452;SDS011;63678;47.994;7.854;2023-04-19T03:56:22;15.13;;;9.20;;
2452;SDS011;63678;47.994;7.854;2023-04-19T03:58:56;12.43;;;8.13;;
2452;SDS011;63678;47.994;7.854;2023-04-19T04:01:28;14.10;;;8.18;;
2452;SDS011;63678;47.994;7.854;2023-04-19T04:04:00;15.10;;;8.00;;
2452;SDS011;63678;47.994;7.854;2023-04-19T04:06:36;14.35;;;8.55;;
2452;SDS011;63678;47.994;7.854;2023-04-19T04:09:08;13.20;;;7.95;;
2452;SDS011;63678;47.994;7.854;2023-04-19T04:11:40;12.13;;;7.77;;
2452;SDS011;63678;47.994;7.854;2023-04-19T04:14:13;13.25;;;7.82;;
2452;SDS011;63678;47.994;7.854;2023-04-19T04:16:46;13.15;;;7.82;;
2452;SDS011;63678;47.994;7.854;2023-04-19T04:19:19;12.60;;;8.25;;
2452;SDS011;63678;47.994;7.854;2023-04-19T04:21:53;13.15;;;8.52;;
2452;SDS011;63678;47.994;7.854;2023-04-19T04:24:25;12.73;;;7.70;;
2452;SDS011;63678;47.994;7.854;2023-04-19T04:27:20;16.17;;;8.73;;
2452;SDS011;63678;47.994;7.854;2023-04-19T04:29:56;13.88;;;7.80;;
2452;SDS011;63678;47.994;7.854;2023-04-19T04:32:29;15.02;;;8.45;;
2452;SDS011;63678;47.994;7.854;2023-04-19T04:35:05;13.05;;;8.07;;
2452;SDS011;63678;47.994;7.854;2023-04-19T04:37:46;12.63;;;8.37;;
2452;SDS011;63678;47.994;7.854;2023-04-19T04:40:19;11.10;;;7.53;;
2452;SDS011;63678;47.994;7.854;2023-04-19T04:42:51;12.90;;;8.75;;
2452;SDS011;63678;47.994;7.854;2023-04-19T04:45:24;11.80;;;7.35;;
2452;SDS011;63678;47.994;7.854;2023-04-19T04:47:57;12.32;;;7.35;;
2452;SDS011;63678;47.994;7.854;2023-04-19T04:50:30;16.87;;;8.23;;
2452;SDS011;63678;47.994;7.854;2023-04-19T04:53:02;21.60;;;10.70;;
2452;SDS011;63678;47.994;7.854;2023-04-19T04:55:36;23.05;;;10.98;;
2452;SDS011;63678;47.994;7.854;2023-04-19T04:58:09;18.10;;;9.38;;
2452;SDS011;63678;47.994;7.854;2023-04-19T05:01:01;17.33;;;8.43;;
2452;SDS011;63678;47.994;7.854;2023-04-19T05:03:38;13.57;;;8.47;;
2452;SDS011;63678;47.994;7.854;2023-04-19T05:06:15;17.65;;;7.85;;
2452;SDS011;63678;47.994;7.854;2023-04-19T05:08:48;14.30;;;7.95;;
2452;SDS011;63678;47.994;7.854;2023-04-19T05:11:39;13.30;;;8.23;;
2452;SDS011;63678;47.994;7.854;2023-04-19T05:14:11;13.60;;;8.52;;
2452;SDS011;63678;47.994;7.854;2023-04-19T05:16:44;12.23;;;8.00;;
2452;SDS011;63678;47.994;7.854;2023-04-19T05:19:16;13.48;;;8.10;;
2452;SDS011;63678;47.994;7.854;2023-04-19T05:21:55;13.48;;;8.07;;
2452;SDS011;63678;47.994;7.854;2023-04-19T05:24:27;14.90;;;8.38;;
2452;SDS011;63678;47.994;7.854;2023-04-19T05:27:00;12.43;;;7.95;;
2452;SDS011;63678;47.994;7.854;2023-04-19T05:29:33;13.70;;;8.27;;
2452;SDS011;63678;47.994;7.854;2023-04-19T05:32:07;16.02;;;9.52;;
2452;SDS011;63678;47.994;7.854;2023-04-19T05:34:47;14.20;;;9.25;;
2452;SDS011;63678;47.994;7.854;2023-04-19T05:37:20;14.68;;;9.23;;
2452;SDS011;63678;47.994;7.854;2023-04-19T05:39:54;13.93;;;9.00;;
2452;SDS011;63678;47.994;7.854;2023-04-19T05:42:28;15.40;;;9.47;;
2452;SDS011;63678;47.994;7.854;2023-04-19T05:45:01;16.65;;;9.48;;
2452;SDS011;63678;47.994;7.854;2023-04-19T05:47:37;16.25;;;10.15;;
2452;SDS011;63678;47.994;7.854;2023-04-19T05:50:28;15.23;;;9.13;;
2452;SDS011;63678;47.994;7.854;2023-04-19T05:53:23;16.83;;;9.60;;
2452;SDS011;63678;47.994;7.854;2023-04-19T05:55:56;15.90;;;9.18;;
2452;SDS011;63678;47.994;7.854;2023-04-19T05:58:29;14.80;;;9.38;;
2452;SDS011;63678;47.994;7.854;2023-04-19T06:01:02;14.38;;;8.88;;
2452;SDS011;63678;47.994;7.854;2023-04-19T06:03:35;13.90;;;9.05;;
2452;SDS011;63678;47.994;7.854;2023-04-19T06:06:09;14.43;;;9.10;;
2452;SDS011;63678;47.994;7.854;2023-04-19T06:08:41;16.60;;;9.90;;
2452;SDS011;63678;47.994;7.854;2023-04-19T06:11:14;16.55;;;9.98;;
2452;SDS011;63678;47.994;7.854;2023-04-19T06:14:02;16.25;;;9.77;;
2452;SDS011;63678;47.994;7.854;2023-04-19T06:16:34;15.43;;;9.80;;
2452;SDS011;63678;47.994;7.854;2023-04-19T06:19:07;15.57;;;10.02;;
2452;SDS011;63678;47.994;7.854;2023-04-19T06:21:39;15.82;;;8.60;;
2452;SDS011;63678;47.994;7.854;2023-04-19T06:24:11;15.73;;;9.43;;
2452;SDS011;63678;47.994;7.854;2023-04-19T06:26:44;15.18;;;9.18;;
2452;SDS011;63678;47.994;7.854;2023-04-19T06:29:18;17.95;;;9.73;;
2452;SDS011;63678;47.994;7.854;2023-04-19T06:31:52;15.90;;;9.32;;
2452;SDS011;63678;47.994;7.854;2023-04-19T06:34:25;14.60;;;9.48;;
2452;SDS011;63678;47.994;7.854;2023-04-19T06:36:57;16.55;;;9.85;;
2452;SDS011;63678;47.994;7.854;2023-04-19T06:39:29;17.42;;;9.70;;
2452;SDS011;63678;47.994;7.854;2023-04-19T06:42:02;15.73;;;9.32;;
2452;SDS011;63678;47.994;7.854;2023-04-19T06:44:34;16.55;;;9.52;;
2452;SDS011;63678;47.994;7.854;2023-04-19T06:47:07;9.75;;;6.43;;
2452;SDS011;63678;47.994;7.854;2023-04-19T06:49:39;17.10;;;9.50;;
2452;SDS011;63678;47.994;7.854;2023-04-19T06:52:12;16.00;;;8.65;;
2452;SDS011;63678;47.994;7.854;2023-04-19T06:54:48;16.95;;;9.23;;
2452;SDS011;63678;47.994;7.854;2023-04-19T06:57:21;13.80;;;8.50;;
2452;SDS011;63678;47.994;7.854;2023-04-19T06:59:54;19.98;;;9.32;;
2452;SDS011;63678;47.994;7.854;2023-04-19T07:02:26;14.45;;;8.98;;
2452;SDS011;63678;47.994;7.854;2023-04-19T07:04:59;17.58;;;9.60;;
2452;SDS011;63678;47.994;7.854;2023-04-19T07:07:32;16.90;;;9.40;;
2452;SDS011;63678;47.994;7.854;2023-04-19T07:10:04;13.60;;;8.82;;
2452;SDS011;63678;47.994;7.854;2023-04-19T07:12:38;17.00;;;9.70;;
2452;SDS011;63678;47.994;7.854;2023-04-19T07:15:10;12.80;;;8.40;;
2452;SDS011;63678;47.994;7.854;2023-04-19T07:17:43;17.50;;;10.00;;
2452;SDS011;63678;47.994;7.854;2023-04-19T07:20:16;15.45;;;10.32;;
2452;SDS011;63678;47.994;7.854;2023-04-19T07:22:48;15.95;;;9.57;;
2452;SDS011;63678;47.994;7.854;2023-04-19T07:25:20;15.15;;;8.75;;
2452;SDS011;63678;47.994;7.854;2023-04-19T07:27:52;14.27;;;9.07;;
2452;SDS011;63678;47.994;7.854;2023-04-19T07:30:26;15.23;;;9.45;;
2452;SDS011;63678;47.994;7.854;2023-04-19T07:32:58;16.77;;;10.60;;
2452;SDS011;63678;47.994;7.854;2023-04-19T07:35:30;16.85;;;10.45;;
2452;SDS011;63678;47.994;7.854;2023-04-19T07:38:03;16.92;;;10.15;;
2452;SDS011;63678;47.994;7.854;2023-04-19T07:40:36;17.33;;;9.70;;
2452;SDS011;63678;47.994;7.854;2023-04-19T07:43:08;17.65;;;9.55;;
2452;SDS011;63678;47.994;7.854;2023-04-19T07:45:40;15.60;;;9.88;;
2452;SDS011;63678;47.994;7.854;2023-04-19T07:48:13;14.30;;;9.60;;
2452;SDS011;63678;47.994;7.854;2023-04-19T07:50:46;16.17;;;9.35;;
2452;SDS011;63678;47.994;7.854;2023-04-19T07:53:19;16.92;;;9.93;;
2452;SDS011;63678;47.994;7.854;2023-04-19T07:55:51;15.75;;;9.65;;
2452;SDS011;63678;47.994;7.854;2023-04-19T07:58:23;15.00;;;8.88;;
2452;SDS011;63678;47.994;7.854;2023-04-19T08:00:57;24.80;;;10.52;;
2452;SDS011;63678;47.994;7.854;2023-04-19T08:03:30;17.70;;;9.15;;
2452;SDS011;63678;47.994;7.854;2023-04-19T08:06:05;16.90;;;10.13;;
2452;SDS011;63678;47.994;7.854;2023-04-19T08:08:39;18.95;;;10.30;;
2452;SDS011;63678;47.994;7.854;2023-04-19T08:11:12;15.98;;;9.88;;
2452;SDS011;63678;47.994;7.854;2023-04-19T08:13:45;17.67;;;9.85;;
2452;SDS011;63678;47.994;7.854;2023-04-19T08:16:37;16.98;;;10.05;;
2452;SDS011;63678;47.994;7.854;2023-04-19T08:19:12;16.00;;;9.95;;
2452;SDS011;63678;47.994;7.854;2023-04-19T08:21:44;16.38;;;9.73;;
2452;SDS011;63678;47.994;7.854;2023-04-19T08:24:17;16.30;;;10.30;;
2452;SDS011;63678;47.994;7.854;2023-04-19T08:26:49;17.52;;;9.98;;
2452;SDS011;63678;47.994;7.854;2023-04-19T08:29:25;17.67;;;10.60;;
2452;SDS011;63678;47.994;7.854;2023-04-19T08:31:57;15.98;;;9.95;;
2452;SDS011;63678;47.994;7.854;2023-04-19T08:34:29;21.58;;;10.70;;
2452;SDS011;63678;47.994;7.854;2023-04-19T08:37:02;17.23;;;10.95;;
2452;SDS011;63678;47.994;7.854;2023-04-19T08:39:35;16.30;;;11.35;;
2452;SDS011;63678;47.994;7.854;2023-04-19T08:42:08;19.15;;;11.52;;
2452;SDS011;63678;47.994;7.854;2023-04-19T08:45:01;23.33;;;12.00;;
2452;SDS011;63678;47.994;7.854;2023-04-19T08:47:41;21.95;;;11.30;;
2452;SDS011;63678;47.994;7.854;2023-04-19T08:50:31;15.70;;;10.35;;
2452;SDS011;63678;47.994;7.854;2023-04-19T08:53:15;18.00;;;10.57;;
2452;SDS011;63678;47.994;7.854;2023-04-19T08:55:56;20.92;;;11.18;;
2452;SDS011;63678;47.994;7.854;2023-04-19T08:58:32;19.55;;;11.77;;
2452;SDS011;63678;47.994;7.854;2023-04-19T09:01:24;21.23;;;11.43;;
2452;SDS011;63678;47.994;7.854;2023-04-19T09:04:07;16.50;;;10.93;;
2452;SDS011;63678;47.994;7.854;2023-04-19T09:06:42;16.38;;;11.45;;
2452;SDS011;63678;47.994;7.854;2023-04-19T09:12:02;19.52;;;10.43;;
2452;SDS011;63678;47.994;7.854;2023-04-19T09:14:46;18.05;;;10.38;;
2452;SDS011;63678;47.994;7.854;2023-04-19T09:17:21;25.17;;;11.95;;
2452;SDS011;63678;47.994;7.854;2023-04-19T09:19:54;19.23;;;11.00;;
2452;SDS011;63678;47.994;7.854;2023-04-19T09:22:27;17.63;;;10.60;;
2452;SDS011;63678;47.994;7.854;2023-04-19T09:24:59;17.77;;;10.90;;
2452;SDS011;63678;47.994;7.854;2023-04-19T09:27:35;19.48;;;10.95;;
2452;SDS011;63678;47.994;7.854;2023-04-19T09:30:08;18.55;;;10.85;;
2452;SDS011;63678;47.994;7.854;2023-04-19T09:32:51;18.40;;;10.95;;
2452;SDS011;63678;47.994;7.854;2023-04-19T09:35:38;18.67;;;11.68;;
2452;SDS011;63678;47.994;7.854;2023-04-19T09:38:15;17.48;;;10.88;;
2452;SDS011;63678;47.994;7.854;2023-04-19T09:40:47;18.92;;;10.80;;
2452;SDS011;63678;47.994;7.854;2023-04-19T09:43:24;15.15;;;10.05;;
2452;SDS011;63678;47.994;7.854;2023-04-19T09:46:32;17.30;;;10.55;;
2452;SDS011;63678;47.994;7.854;2023-04-19T09:49:14;17.77;;;10.38;;
2452;SDS011;63678;47.994;7.854;2023-04-19T09:52:01;18.27;;;11.55;;
2452;SDS011;63678;47.994;7.854;2023-04-19T09:54:36;17.17;;;10.30;;
2452;SDS011;63678;47.994;7.854;2023-04-19T09:57:08;17.00;;;10.50;;
2452;SDS011;63678;47.994;7.854;2023-04-19T09:59:41;17.65;;;10.13;;
2452;SDS011;63678;47.994;7.854;2023-04-19T10:02:13;22.88;;;10.30;;
2452;SDS011;63678;47.994;7.854;2023-04-19T10:04:47;21.10;;;10.75;;
2452;SDS011;63678;47.994;7.854;2023-04-19T10:07:40;18.35;;;9.90;;
2452;SDS011;63678;47.994;7.854;2023-04-19T10:10:14;18.63;;;10.25;;
2452;SDS011;63678;47.994;7.854;2023-04-19T10:12:53;16.48;;;10.73;;
2452;SDS011;63678;47.994;7.854;2023-04-19T10:15:46;21.15;;;10.48;;
2452;SDS011;63678;47.994;7.854;2023-04-19T10:18:27;18.00;;;10.48;;
2452;SDS011;63678;47.994;7.854;2023-04-19T10:21:03;16.88;;;10.02;;
2452;SDS011;63678;47.994;7.854;2023-04-19T10:23:38;17.38;;;10.45;;
2452;SDS011;63678;47.994;7.854;2023-04-19T10:26:10;19.45;;;11.43;;
2452;SDS011;63678;47.994;7.854;2023-04-19T10:28:43;17.05;;;11.10;;
2452;SDS011;63678;47.994;7.854;2023-04-19T10:31:16;16.50;;;11.15;;
2452;SDS011;63678;47.994;7.854;2023-04-19T10:33:55;18.60;;;10.52;;
2452;SDS011;63678;47.994;7.854;2023-04-19T10:36:28;17.90;;;10.50;;
2452;SDS011;63678;47.994;7.854;2023-04-19T10:39:00;18.05;;;10.77;;
2452;SDS011;63678;47.994;7.854;2023-04-19T10:48:05;19.77;;;11.15;;
2452;SDS011;63678;47.994;7.854;2023-04-19T10:51:11;19.75;;;10.57;;
2452;SDS011;63678;47.994;7.854;2023-04-19T11:01:44;17.90;;;10.20;;
2452;SDS011;63678;47.994;7.854;2023-04-19T11:07:03;19.17;;;11.02;;
2452;SDS011;63678;47.994;7.854;2023-04-19T11:09:38;16.25;;;10.93;;
2452;SDS011;63678;47.994;7.854;2023-04-19T11:12:17;15.68;;;10.77;;
2452;SDS011;63678;47.994;7.854;2023-04-19T11:14:56;16.73;;;10.85;;
2452;SDS011;63678;47.994;7.854;2023-04-19T11:17:30;15.18;;;9.38;;
2452;SDS011;63678;47.994;7.854;2023-04-19T11:20:06;16.88;;;11.02;;
2452;SDS011;63678;47.994;7.854;2023-04-19T11:22:44;16.60;;;10.48;;
2452;SDS011;63678;47.994;7.854;2023-04-19T11:25:17;17.05;;;10.63;;
2452;SDS011;63678;47.994;7.854;2023-04-19T11:27:54;16.67;;;10.70;;
2452;SDS011;63678;47.994;7.854;2023-04-19T11:30:28;18.83;;;10.98;;
2452;SDS011;63678;47.994;7.854;2023-04-19T11:33:01;16.65;;;10.75;;
2452;SDS011;63678;47.994;7.854;2023-04-19T11:35:34;17.55;;;10.27;;
2452;SDS011;63678;47.994;7.854;2023-04-19T11:38:06;14.30;;;9.15;;
2452;SDS011;63678;47.994;7.854;2023-04-19T11:40:38;15.57;;;9.75;;
2452;SDS011;63678;47.994;7.854;2023-04-19T11:43:11;16.13;;;9.75;;
2452;SDS011;63678;47.994;7.854;2023-04-19T11:45:43;14.10;;;8.68;;
2452;SDS011;63678;47.994;7.854;2023-04-19T11:48:16;16.48;;;10.05;;
2452;SDS011;63678;47.994;7.854;2023-04-19T11:50:48;12.20;;;8.77;;
2452;SDS011;63678;47.994;7.854;2023-04-19T11:53:21;14.70;;;8.05;;
2452;SDS011;63678;47.994;7.854;2023-04-19T11:55:56;13.27;;;9.13;;
2452;SDS011;63678;47.994;7.854;2023-04-19T12:01:18;12.85;;;8.27;;
2452;SDS011;63678;47.994;7.854;2023-04-19T12:03:52;14.30;;;9.15;;
2452;SDS011;63678;47.994;7.854;2023-04-19T12:06:29;13.80;;;7.82;;
2452;SDS011;63678;47.994;7.854;2023-04-19T12:09:05;14.10;;;8.70;;
2452;SDS011;63678;47.994;7.854;2023-04-19T12:11:43;12.43;;;7.57;;
2452;SDS011;63678;47.994;7.854;2023-04-19T12:14:21;14.75;;;8.38;;
2452;SDS011;63678;47.994;7.854;2023-04-19T12:17:09;13.27;;;8.30;;
2452;SDS011;63678;47.994;7.854;2023-04-19T12:19:45;14.05;;;8.98;;
2452;SDS011;63678;47.994;7.854;2023-04-19T12:22:18;11.10;;;7.70;;
2452;SDS011;63678;47.994;7.854;2023-04-19T12:24:51;13.15;;;8.50;;
2452;SDS011;63678;47.994;7.854;2023-04-19T12:27:24;13.35;;;8.57;;
2452;SDS011;63678;47.994;7.854;2023-04-19T12:29:57;14.30;;;9.03;;
2452;SDS011;63678;47.994;7.854;2023-04-19T12:32:30;14.52;;;9.23;;
2452;SDS011;63678;47.994;7.854;2023-04-19T12:35:02;14.80;;;8.90;;
2452;SDS011;63678;47.994;7.854;2023-04-19T12:37:35;12.68;;;8.15;;
2452;SDS011;63678;47.994;7.854;2023-04-19T12:40:08;13.55;;;8.77;;
2452;SDS011;63678;47.994;7.854;2023-04-19T12:42:40;15.07;;;8.73;;
2452;SDS011;63678;47.994;7.854;2023-04-19T12:45:13;13.60;;;9.27;;
2452;SDS011;63678;47.994;7.854;2023-04-19T12:47:46;15.00;;;9.82;;
2452;SDS011;63678;47.994;7.854;2023-04-19T12:50:19;16.33;;;9.60;;
2452;SDS011;63678;47.994;7.854;2023-04-19T12:52:51;14.85;;;9.75;;
2452;SDS011;63678;47.994;7.854;2023-04-19T12:55:24;15.55;;;8.98;;
2452;SDS011;63678;47.994;7.854;2023-04-19T12:57:56;13.30;;;8.40;;
2452;SDS011;63678;47.994;7.854;2023-04-19T13:00:29;12.82;;;7.90;;
2452;SDS011;63678;47.994;7.854;2023-04-19T13:03:01;17.58;;;8.27;;
2452;SDS011;63678;47.994;7.854;2023-04-19T13:05:34;11.02;;;7.70;;
2452;SDS011;63678;47.994;7.854;2023-04-19T13:08:07;12.97;;;8.30;;
2452;SDS011;63678;47.994;7.854;2023-04-19T13:10:39;14.95;;;7.97;;
2452;SDS011;63678;47.994;7.854;2023-04-19T13:13:11;12.02;;;7.65;;
2452;SDS011;63678;47.994;7.854;2023-04-19T13:15:43;14.05;;;8.32;;
2452;SDS011;63678;47.994;7.854;2023-04-19T13:18:16;15.25;;;8.75;;
2452;SDS011;63678;47.994;7.854;2023-04-19T13:20:49;12.23;;;7.70;;
2452;SDS011;63678;47.994;7.854;2023-04-19T13:23:24;21.83;;;8.23;;
2452;SDS011;63678;47.994;7.854;2023-04-19T13:25:57;16.35;;;7.63;;
2452;SDS011;63678;47.994;7.854;2023-04-19T13:28:29;11.98;;;7.60;;
2452;SDS011;63678;47.994;7.854;2023-04-19T13:31:02;12.90;;;8.30;;
2452;SDS011;63678;47.994;7.854;2023-04-19T13:33:35;11.75;;;8.18;;
2452;SDS011;63678;47.994;7.854;2023-04-19T13:36:08;12.50;;;7.10;;
2452;SDS011;63678;47.994;7.854;2023-04-19T13:38:40;12.63;;;7.93;;
2452;SDS011;63678;47.994;7.854;2023-04-19T13:41:12;15.18;;;10.07;;
2452;SDS011;63678;47.994;7.854;2023-04-19T13:43:45;12.10;;;7.85;;
2452;SDS011;63678;47.994;7.854;2023-04-19T13:46:18;11.60;;;7.60;;
2452;SDS011;63678;47.994;7.854;2023-04-19T13:48:50;13.30;;;8.27;;
2452;SDS011;63678;47.994;7.854;2023-04-19T13:51:23;11.55;;;8.15;;
2452;SDS011;63678;47.994;7.854;2023-04-19T13:53:55;14.95;;;10.35;;
2452;SDS011;63678;47.994;7.854;2023-04-19T13:56:27;13.75;;;8.05;;
2452;SDS011;63678;47.994;7.854;2023-04-19T13:59:00;17.75;;;7.90;;
2452;SDS011;63678;47.994;7.854;2023-04-19T14:01:32;11.93;;;7.47;;
2452;SDS011;63678;47.994;7.854;2023-04-19T14:04:06;12.75;;;7.47;;
2452;SDS011;63678;47.994;7.854;2023-04-19T14:06:39;10.77;;;7.45;;
2452;SDS011;63678;47.994;7.854;2023-04-19T14:09:11;13.55;;;8.15;;
2452;SDS011;63678;47.994;7.854;2023-04-19T14:11:43;12.97;;;7.53;;
2452;SDS011;63678;47.994;7.854;2023-04-19T14:14:15;12.50;;;8.23;;
2452;SDS011;63678;47.994;7.854;2023-04-19T14:16:48;12.63;;;8.27;;
2452;SDS011;63678;47.994;7.854;2023-04-19T14:19:21;12.07;;;8.23;;
2452;SDS011;63678;47.994;7.854;2023-04-19T14:21:54;13.73;;;8.80;;
2452;SDS011;63678;47.994;7.854;2023-04-19T14:24:26;12.63;;;8.43;;
2452;SDS011;63678;47.994;7.854;2023-04-19T14:26:58;11.65;;;7.72;;
2452;SDS011;63678;47.994;7.854;2023-04-19T14:29:41;13.30;;;8.10;;
2452;SDS011;63678;47.994;7.854;2023-04-19T14:32:14;13.18;;;8.15;;
2452;SDS011;63678;47.994;7.854;2023-04-19T14:34:58;13.13;;;8.50;;
2452;SDS011;63678;47.994;7.854;2023-04-19T14:37:30;12.90;;;8.03;;
2452;SDS011;63678;47.994;7.854;2023-04-19T14:40:03;12.45;;;7.88;;
2452;SDS011;63678;47.994;7.854;2023-04-19T14:42:36;15.30;;;8.57;;
2452;SDS011;63678;47.994;7.854;2023-04-19T14:45:08;12.57;;;8.23;;
2452;SDS011;63678;47.994;7.854;2023-04-19T14:47:41;13.90;;;9.18;;
2452;SDS011;63678;47.994;7.854;2023-04-19T14:50:14;12.38;;;8.48;;
2452;SDS011;63678;47.994;7.854;2023-04-19T14:52:47;15.00;;;9.02;;
2452;SDS011;63678;47.994;7.854;2023-04-19T14:55:19;12.27;;;8.75;;
2452;SDS011;63678;47.994;7.854;2023-04-19T14:57:53;13.32;;;8.98;;
2452;SDS011;63678;47.994;7.854;2023-04-19T15:00:26;13.68;;;8.43;;
2452;SDS011;63678;47.994;7.854;2023-04-19T15:02:59;13.10;;;7.68;;
2452;SDS011;63678;47.994;7.854;2023-04-19T15:05:35;10.50;;;7.60;;
2452;SDS011;63678;47.994;7.854;2023-04-19T15:08:08;13.80;;;7.68;;
2452;SDS011;63678;47.994;7.854;2023-04-19T15:10:57;11.38;;;7.65;;
2452;SDS011;63678;47.994;7.854;2023-04-19T15:13:30;16.00;;;8.45;;
2452;SDS011;63678;47.994;7.854;2023-04-19T15:16:02;12.07;;;8.03;;
2452;SDS011;63678;47.994;7.854;2023-04-19T15:18:36;10.65;;;7.43;;
2452;SDS011;63678;47.994;7.854;2023-04-19T15:21:09;14.25;;;8.95;;
2452;SDS011;63678;47.994;7.854;2023-04-19T15:23:41;14.73;;;7.65;;
2452;SDS011;63678;47.994;7.854;2023-04-19T15:26:13;11.88;;;7.15;;
2452;SDS011;63678;47.994;7.854;2023-04-19T15:28:46;10.80;;;7.03;;
2452;SDS011;63678;47.994;7.854;2023-04-19T15:31:19;11.93;;;6.82;;
2452;SDS011;63678;47.994;7.854;2023-04-19T15:33:51;12.15;;;7.45;;
2452;SDS011;63678;47.994;7.854;2023-04-19T15:36:24;10.80;;;7.28;;
2452;SDS011;63678;47.994;7.854;2023-04-19T15:38:58;9.65;;;6.88;;
2452;SDS011;63678;47.994;7.854;2023-04-19T15:41:30;12.03;;;8.07;;
2452;SDS011;63678;47.994;7.854;2023-04-19T15:44:03;13.13;;;8.93;;
2452;SDS011;63678;47.994;7.854;2023-04-19T15:46:35;12.65;;;8.18;;
2452;SDS011;63678;47.994;7.854;2023-04-19T15:49:07;14.55;;;8.85;;
2452;SDS011;63678;47.994;7.854;2023-04-19T15:51:40;13.98;;;8.68;;